sensor_id;sensor_type;location;lat;lon;timestamp;P1;durP1;ratioP1;P2;durP2;ratioP2
9860;SDS011;4969;52.304;4.968;2023-02-28T00:01:13;12.30;;;10.37;;
9860;SDS011;4969;52.304;4.968;2023-02-28T00:03:40;14.67;;;11.20;;
9860;SDS011;4969;52.304;4.968;2023-02-28T00:06:08;7.73;;;4.87;;
9860;SDS011;4969;52.304;4.968;2023-02-28T00:08:35;11.90;;;9.23;;
9860;SDS011;4969;52.304;4.968;2023-02-28T00:11:02;10.70;;;8.73;;
9860;SDS011;4969;52.304;4.968;2023-02-28T00:13:29;14.53;;;11.47;;
9860;SDS011;4969;52.304;4.968;2023-02-28T00:16:00;11.57;;;10.13;;
9860;SDS011;4969;52.304;4.968;2023-02-28T00:18:27;10.97;;;7.10;;
9860;SDS011;4969;52.304;4.968;2023-02-28T00:20:54;9.47;;;8.13;;
9860;SDS011;4969;52.304;4.968;2023-02-28T00:23:22;9.30;;;8.03;;
9860;SDS011;4969;52.304;4.968;2023-02-28T00:25:48;12.80;;;11.00;;
9860;SDS011;4969;52.304;4.968;2023-02-28T00:28:16;7.07;;;6.17;;
9860;SDS011;4969;52.304;4.968;2023-02-28T00:30:43;9.73;;;8.73;;
9860;SDS011;4969;52.304;4.968;2023-02-28T00:33:10;11.27;;;8.83;;
9860;SDS011;4969;52.304;4.968;2023-02-28T00:35:37;10.07;;;9.03;;
9860;SDS011;4969;52.304;4.968;2023-02-28T00:38:04;3.53;;;1.90;;
9860;SDS011;4969;52.304;4.968;2023-02-28T00:40:33;8.20;;;6.80;;
9860;SDS011;4969;52.304;4.968;2023-02-28T00:42:59;2.73;;;1.87;;
9860;SDS011;4969;52.304;4.968;2023-02-28T00:45:26;6.10;;;5.13;;
9860;SDS011;4969;52.304;4.968;2023-02-28T00:47:52;8.50;;;7.57;;
9860;SDS011;4969;52.304;4.968;2023-02-28T00:50:19;6.27;;;5.67;;
9860;SDS011;4969;52.304;4.968;2023-02-28T00:52:46;3.70;;;2.33;;
9860;SDS011;4969;52.304;4.968;2023-02-28T00:55:13;9.90;;;8.17;;
9860;SDS011;4969;52.304;4.968;2023-02-28T00:57:41;11.50;;;9.03;;
9860;SDS011;4969;52.304;4.968;2023-02-28T01:00:08;8.90;;;8.00;;
9860;SDS011;4969;52.304;4.968;2023-02-28T01:02:36;8.80;;;7.90;;
9860;SDS011;4969;52.304;4.968;2023-02-28T01:05:02;6.47;;;4.70;;
9860;SDS011;4969;52.304;4.968;2023-02-28T01:07:29;10.77;;;8.63;;
9860;SDS011;4969;52.304;4.968;2023-02-28T01:09:56;9.70;;;7.83;;
9860;SDS011;4969;52.304;4.968;2023-02-28T01:12:23;8.80;;;7.90;;
9860;SDS011;4969;52.304;4.968;2023-02-28T01:14:51;10.07;;;7.33;;
9860;SDS011;4969;52.304;4.968;2023-02-28T01:17:17;11.77;;;8.93;;
9860;SDS011;4969;52.304;4.968;2023-02-28T01:19:44;9.23;;;6.97;;
9860;SDS011;4969;52.304;4.968;2023-02-28T01:22:10;7.33;;;6.03;;
9860;SDS011;4969;52.304;4.968;2023-02-28T01:24:37;8.77;;;7.13;;
9860;SDS011;4969;52.304;4.968;2023-02-28T01:27:04;8.77;;;7.30;;
9860;SDS011;4969;52.304;4.968;2023-02-28T01:29:30;5.20;;;3.70;;
9860;SDS011;4969;52.304;4.968;2023-02-28T01:31:58;9.13;;;7.60;;
9860;SDS011;4969;52.304;4.968;2023-02-28T01:34:25;8.90;;;7.77;;
9860;SDS011;4969;52.304;4.968;2023-02-28T01:36:52;9.17;;;7.47;;
9860;SDS011;4969;52.304;4.968;2023-02-28T01:39:18;8.23;;;6.60;;
9860;SDS011;4969;52.304;4.968;2023-02-28T01:41:45;8.47;;;7.40;;
9860;SDS011;4969;52.304;4.968;2023-02-28T01:54:01;6.85;;;5.30;;
9860;SDS011;4969;52.304;4.968;2023-02-28T01:56:32;6.87;;;5.80;;
9860;SDS011;4969;52.304;4.968;2023-02-28T01:59:01;11.10;;;7.47;;
9860;SDS011;4969;52.304;4.968;2023-02-28T02:01:29;7.47;;;6.63;;
9860;SDS011;4969;52.304;4.968;2023-02-28T02:03:57;8.00;;;6.70;;
9860;SDS011;4969;52.304;4.968;2023-02-28T02:06:27;8.37;;;6.70;;
9860;SDS011;4969;52.304;4.968;2023-02-28T02:08:56;7.93;;;6.30;;
9860;SDS011;4969;52.304;4.968;2023-02-28T02:11:24;9.07;;;7.75;;
9860;SDS011;4969;52.304;4.968;2023-02-28T02:16:55;9.27;;;5.50;;
9860;SDS011;4969;52.304;4.968;2023-02-28T02:19:49;8.17;;;6.47;;
9860;SDS011;4969;52.304;4.968;2023-02-28T02:22:48;8.10;;;6.03;;
9860;SDS011;4969;52.304;4.968;2023-02-28T02:25:39;8.17;;;6.03;;
9860;SDS011;4969;52.304;4.968;2023-02-28T02:28:25;6.70;;;6.00;;
9860;SDS011;4969;52.304;4.968;2023-02-28T02:31:26;7.80;;;6.22;;
9860;SDS011;4969;52.304;4.968;2023-02-28T02:36:53;6.90;;;6.20;;
9860;SDS011;4969;52.304;4.968;2023-02-28T02:39:31;6.10;;;5.50;;
9860;SDS011;4969;52.304;4.968;2023-02-28T02:42:05;7.60;;;6.15;;
9860;SDS011;4969;52.304;4.968;2023-02-28T02:44:42;11.02;;;6.97;;
9860;SDS011;4969;52.304;4.968;2023-02-28T02:47:14;6.80;;;6.10;;
9860;SDS011;4969;52.304;4.968;2023-02-28T02:49:45;6.97;;;5.68;;
9860;SDS011;4969;52.304;4.968;2023-02-28T02:52:15;7.28;;;6.10;;
9860;SDS011;4969;52.304;4.968;2023-02-28T02:54:46;6.68;;;3.17;;
9860;SDS011;4969;52.304;4.968;2023-02-28T02:57:20;7.25;;;6.40;;
9860;SDS011;4969;52.304;4.968;2023-02-28T02:59:49;7.90;;;6.40;;
9860;SDS011;4969;52.304;4.968;2023-02-28T03:02:17;8.98;;;6.72;;
9860;SDS011;4969;52.304;4.968;2023-02-28T03:04:48;5.33;;;4.70;;
9860;SDS011;4969;52.304;4.968;2023-02-28T03:07:18;8.30;;;6.17;;
9860;SDS011;4969;52.304;4.968;2023-02-28T03:09:50;6.27;;;5.03;;
9860;SDS011;4969;52.304;4.968;2023-02-28T03:12:17;6.63;;;4.90;;
9860;SDS011;4969;52.304;4.968;2023-02-28T03:14:48;7.90;;;5.93;;
9860;SDS011;4969;52.304;4.968;2023-02-28T03:17:36;5.53;;;4.93;;
9860;SDS011;4969;52.304;4.968;2023-02-28T03:20:26;3.33;;;3.03;;
9860;SDS011;4969;52.304;4.968;2023-02-28T03:23:03;5.83;;;4.97;;
9860;SDS011;4969;52.304;4.968;2023-02-28T03:25:37;7.33;;;6.53;;
9860;SDS011;4969;52.304;4.968;2023-02-28T03:28:14;5.93;;;4.60;;
9860;SDS011;4969;52.304;4.968;2023-02-28T03:30:47;6.68;;;5.55;;
9860;SDS011;4969;52.304;4.968;2023-02-28T03:33:19;6.47;;;5.03;;
9860;SDS011;4969;52.304;4.968;2023-02-28T03:35:51;5.20;;;4.70;;
9860;SDS011;4969;52.304;4.968;2023-02-28T03:38:22;5.90;;;5.30;;
9860;SDS011;4969;52.304;4.968;2023-02-28T03:40:56;5.97;;;5.00;;
9860;SDS011;4969;52.304;4.968;2023-02-28T03:43:29;6.10;;;4.50;;
9860;SDS011;4969;52.304;4.968;2023-02-28T03:45:58;6.47;;;5.17;;
9860;SDS011;4969;52.304;4.968;2023-02-28T03:48:29;4.60;;;4.20;;
9860;SDS011;4969;52.304;4.968;2023-02-28T03:51:01;5.07;;;4.20;;
9860;SDS011;4969;52.304;4.968;2023-02-28T03:53:30;5.50;;;4.60;;
9860;SDS011;4969;52.304;4.968;2023-02-28T03:56:01;5.82;;;5.05;;
9860;SDS011;4969;52.304;4.968;2023-02-28T03:58:35;5.67;;;4.33;;
9860;SDS011;4969;52.304;4.968;2023-02-28T04:01:07;5.23;;;4.73;;
9860;SDS011;4969;52.304;4.968;2023-02-28T04:03:37;5.25;;;4.75;;
9860;SDS011;4969;52.304;4.968;2023-02-28T04:06:06;3.20;;;2.67;;
9860;SDS011;4969;52.304;4.968;2023-02-28T04:08:38;5.13;;;4.60;;
9860;SDS011;4969;52.304;4.968;2023-02-28T04:11:06;4.27;;;2.50;;
9860;SDS011;4969;52.304;4.968;2023-02-28T04:13:44;5.30;;;4.70;;
9860;SDS011;4969;52.304;4.968;2023-02-28T04:16:11;6.03;;;4.50;;
9860;SDS011;4969;52.304;4.968;2023-02-28T04:18:37;5.43;;;4.80;;
9860;SDS011;4969;52.304;4.968;2023-02-28T04:21:04;4.80;;;4.00;;
9860;SDS011;4969;52.304;4.968;2023-02-28T04:23:33;5.80;;;4.63;;
9860;SDS011;4969;52.304;4.968;2023-02-28T04:25:59;5.03;;;4.53;;
9860;SDS011;4969;52.304;4.968;2023-02-28T04:28:26;4.03;;;3.60;;
9860;SDS011;4969;52.304;4.968;2023-02-28T04:30:55;5.03;;;4.57;;
9860;SDS011;4969;52.304;4.968;2023-02-28T04:33:22;4.03;;;3.57;;
9860;SDS011;4969;52.304;4.968;2023-02-28T04:35:57;4.80;;;4.07;;
9860;SDS011;4969;52.304;4.968;2023-02-28T04:38:26;5.77;;;4.17;;
9860;SDS011;4969;52.304;4.968;2023-02-28T04:40:53;5.90;;;4.37;;
9860;SDS011;4969;52.304;4.968;2023-02-28T04:43:19;5.73;;;4.67;;
9860;SDS011;4969;52.304;4.968;2023-02-28T04:45:46;4.32;;;3.92;;
9860;SDS011;4969;52.304;4.968;2023-02-28T04:48:12;4.78;;;3.92;;
9860;SDS011;4969;52.304;4.968;2023-02-28T04:50:39;4.87;;;4.47;;
9860;SDS011;4969;52.304;4.968;2023-02-28T04:53:05;5.47;;;3.67;;
9860;SDS011;4969;52.304;4.968;2023-02-28T04:55:33;5.05;;;4.50;;
9860;SDS011;4969;52.304;4.968;2023-02-28T04:58:00;4.55;;;4.15;;
9860;SDS011;4969;52.304;4.968;2023-02-28T05:00:26;4.43;;;4.03;;
9860;SDS011;4969;52.304;4.968;2023-02-28T05:02:53;4.90;;;3.90;;
9860;SDS011;4969;52.304;4.968;2023-02-28T05:05:19;5.32;;;4.45;;
9860;SDS011;4969;52.304;4.968;2023-02-28T05:07:46;4.88;;;3.92;;
9860;SDS011;4969;52.304;4.968;2023-02-28T05:10:12;4.73;;;4.00;;
9860;SDS011;4969;52.304;4.968;2023-02-28T05:12:40;4.70;;;4.00;;
9860;SDS011;4969;52.304;4.968;2023-02-28T05:15:07;4.18;;;3.80;;
9860;SDS011;4969;52.304;4.968;2023-02-28T05:17:38;6.03;;;4.55;;
9860;SDS011;4969;52.304;4.968;2023-02-28T05:20:05;4.25;;;3.78;;
9860;SDS011;4969;52.304;4.968;2023-02-28T05:22:35;4.88;;;4.47;;
9860;SDS011;4969;52.304;4.968;2023-02-28T05:25:02;4.93;;;4.30;;
9860;SDS011;4969;52.304;4.968;2023-02-28T05:27:29;4.93;;;4.38;;
9860;SDS011;4969;52.304;4.968;2023-02-28T05:29:57;5.13;;;4.30;;
9860;SDS011;4969;52.304;4.968;2023-02-28T05:32:24;5.07;;;4.10;;
9860;SDS011;4969;52.304;4.968;2023-02-28T05:34:50;6.10;;;4.60;;
9860;SDS011;4969;52.304;4.968;2023-02-28T05:37:17;5.27;;;3.90;;
9860;SDS011;4969;52.304;4.968;2023-02-28T05:39:43;4.70;;;4.00;;
9860;SDS011;4969;52.304;4.968;2023-02-28T05:42:10;4.93;;;3.97;;
9860;SDS011;4969;52.304;4.968;2023-02-28T05:44:36;4.47;;;4.07;;
9860;SDS011;4969;52.304;4.968;2023-02-28T05:47:04;5.53;;;4.00;;
9860;SDS011;4969;52.304;4.968;2023-02-28T05:49:31;5.83;;;3.70;;
9860;SDS011;4969;52.304;4.968;2023-02-28T05:51:57;3.97;;;3.60;;
9860;SDS011;4969;52.304;4.968;2023-02-28T05:54:24;3.87;;;3.57;;
9860;SDS011;4969;52.304;4.968;2023-02-28T05:56:50;5.93;;;3.97;;
9860;SDS011;4969;52.304;4.968;2023-02-28T05:59:17;4.47;;;4.07;;
9860;SDS011;4969;52.304;4.968;2023-02-28T06:01:44;5.37;;;4.77;;
9860;SDS011;4969;52.304;4.968;2023-02-28T06:04:15;7.13;;;4.47;;
9860;SDS011;4969;52.304;4.968;2023-02-28T06:06:44;7.00;;;6.10;;
9860;SDS011;4969;52.304;4.968;2023-02-28T06:09:10;7.40;;;5.23;;
9860;SDS011;4969;52.304;4.968;2023-02-28T06:11:38;5.53;;;5.03;;
9860;SDS011;4969;52.304;4.968;2023-02-28T06:14:04;8.07;;;5.10;;
9860;SDS011;4969;52.304;4.968;2023-02-28T06:16:32;5.87;;;4.60;;
9860;SDS011;4969;52.304;4.968;2023-02-28T06:19:00;5.07;;;4.60;;
9860;SDS011;4969;52.304;4.968;2023-02-28T06:21:29;3.50;;;3.20;;
9860;SDS011;4969;52.304;4.968;2023-02-28T06:23:57;4.73;;;4.33;;
9860;SDS011;4969;52.304;4.968;2023-02-28T06:26:24;6.17;;;4.40;;
9860;SDS011;4969;52.304;4.968;2023-02-28T06:28:51;5.03;;;3.87;;
9860;SDS011;4969;52.304;4.968;2023-02-28T06:31:18;4.37;;;4.00;;
9860;SDS011;4969;52.304;4.968;2023-02-28T06:33:45;3.80;;;3.50;;
9860;SDS011;4969;52.304;4.968;2023-02-28T06:36:12;4.00;;;3.50;;
9860;SDS011;4969;52.304;4.968;2023-02-28T06:38:41;6.77;;;3.70;;
9860;SDS011;4969;52.304;4.968;2023-02-28T06:41:09;3.80;;;3.50;;
9860;SDS011;4969;52.304;4.968;2023-02-28T06:43:38;4.43;;;3.90;;
9860;SDS011;4969;52.304;4.968;2023-02-28T06:46:06;4.00;;;3.23;;
9860;SDS011;4969;52.304;4.968;2023-02-28T06:48:36;3.47;;;3.17;;
9860;SDS011;4969;52.304;4.968;2023-02-28T06:51:03;3.50;;;3.20;;
9860;SDS011;4969;52.304;4.968;2023-02-28T06:53:31;5.43;;;3.23;;
9860;SDS011;4969;52.304;4.968;2023-02-28T06:56:03;3.90;;;3.50;;
9860;SDS011;4969;52.304;4.968;2023-02-28T06:58:30;3.80;;;3.50;;
9860;SDS011;4969;52.304;4.968;2023-02-28T07:00:57;3.30;;;3.00;;
9860;SDS011;4969;52.304;4.968;2023-02-28T07:03:23;3.30;;;3.00;;
9860;SDS011;4969;52.304;4.968;2023-02-28T07:05:50;3.87;;;2.93;;
9860;SDS011;4969;52.304;4.968;2023-02-28T07:08:16;3.10;;;2.73;;
9860;SDS011;4969;52.304;4.968;2023-02-28T07:10:43;3.47;;;2.63;;
9860;SDS011;4969;52.304;4.968;2023-02-28T07:13:12;3.17;;;2.87;;
9860;SDS011;4969;52.304;4.968;2023-02-28T07:15:38;2.90;;;2.70;;
9860;SDS011;4969;52.304;4.968;2023-02-28T07:18:05;4.77;;;2.90;;
9860;SDS011;4969;52.304;4.968;2023-02-28T07:20:31;3.30;;;2.90;;
9860;SDS011;4969;52.304;4.968;2023-02-28T07:22:58;6.40;;;3.00;;
9860;SDS011;4969;52.304;4.968;2023-02-28T07:25:25;3.53;;;3.23;;
9860;SDS011;4969;52.304;4.968;2023-02-28T07:27:53;4.87;;;3.10;;
9860;SDS011;4969;52.304;4.968;2023-02-28T07:30:21;4.23;;;3.40;;
9860;SDS011;4969;52.304;4.968;2023-02-28T07:32:48;2.93;;;2.70;;
9860;SDS011;4969;52.304;4.968;2023-02-28T07:35:14;4.37;;;3.10;;
9860;SDS011;4969;52.304;4.968;2023-02-28T07:37:41;3.53;;;3.13;;
9860;SDS011;4969;52.304;4.968;2023-02-28T07:40:09;3.30;;;3.00;;
9860;SDS011;4969;52.304;4.968;2023-02-28T07:42:37;3.10;;;2.90;;
9860;SDS011;4969;52.304;4.968;2023-02-28T07:45:05;3.17;;;2.43;;
9860;SDS011;4969;52.304;4.968;2023-02-28T07:47:34;3.37;;;3.00;;
9860;SDS011;4969;52.304;4.968;2023-02-28T07:50:00;3.40;;;3.10;;
9860;SDS011;4969;52.304;4.968;2023-02-28T07:52:27;4.30;;;2.67;;
9860;SDS011;4969;52.304;4.968;2023-02-28T07:54:53;2.70;;;2.50;;
9860;SDS011;4969;52.304;4.968;2023-02-28T07:57:20;3.20;;;2.70;;
9860;SDS011;4969;52.304;4.968;2023-02-28T07:59:46;3.50;;;3.20;;
9860;SDS011;4969;52.304;4.968;2023-02-28T08:02:13;3.30;;;3.10;;
9860;SDS011;4969;52.304;4.968;2023-02-28T08:04:42;3.40;;;3.10;;
9860;SDS011;4969;52.304;4.968;2023-02-28T08:07:09;3.80;;;3.40;;
9860;SDS011;4969;52.304;4.968;2023-02-28T08:09:38;3.87;;;3.50;;
9860;SDS011;4969;52.304;4.968;2023-02-28T08:12:05;4.70;;;3.90;;
9860;SDS011;4969;52.304;4.968;2023-02-28T08:14:31;4.30;;;3.90;;
9860;SDS011;4969;52.304;4.968;2023-02-28T08:16:58;3.60;;;3.33;;
9860;SDS011;4969;52.304;4.968;2023-02-28T08:19:25;4.13;;;3.73;;
9860;SDS011;4969;52.304;4.968;2023-02-28T08:21:53;4.40;;;4.00;;
9860;SDS011;4969;52.304;4.968;2023-02-28T08:24:20;4.40;;;4.00;;
9860;SDS011;4969;52.304;4.968;2023-02-28T08:26:46;3.97;;;3.67;;
9860;SDS011;4969;52.304;4.968;2023-02-28T08:29:13;4.13;;;3.73;;
9860;SDS011;4969;52.304;4.968;2023-02-28T08:31:40;4.67;;;4.20;;
9860;SDS011;4969;52.304;4.968;2023-02-28T08:34:07;4.13;;;3.83;;
9860;SDS011;4969;52.304;4.968;2023-02-28T08:36:34;4.00;;;3.70;;
9860;SDS011;4969;52.304;4.968;2023-02-28T08:39:02;4.53;;;3.90;;
9860;SDS011;4969;52.304;4.968;2023-02-28T08:41:29;4.00;;;3.60;;
9860;SDS011;4969;52.304;4.968;2023-02-28T08:43:56;5.60;;;4.10;;
9860;SDS011;4969;52.304;4.968;2023-02-28T08:46:22;3.90;;;3.60;;
9860;SDS011;4969;52.304;4.968;2023-02-28T08:48:51;3.80;;;3.50;;
9860;SDS011;4969;52.304;4.968;2023-02-28T08:51:18;4.13;;;3.83;;
9860;SDS011;4969;52.304;4.968;2023-02-28T08:53:51;4.30;;;4.00;;
9860;SDS011;4969;52.304;4.968;2023-02-28T08:56:19;5.90;;;4.50;;
9860;SDS011;4969;52.304;4.968;2023-02-28T08:58:47;5.40;;;4.17;;
9860;SDS011;4969;52.304;4.968;2023-02-28T09:01:15;4.60;;;4.20;;
9860;SDS011;4969;52.304;4.968;2023-02-28T09:03:43;5.43;;;4.53;;
9860;SDS011;4969;52.304;4.968;2023-02-28T09:06:11;4.60;;;4.20;;
9860;SDS011;4969;52.304;4.968;2023-02-28T09:08:37;4.13;;;3.83;;
9860;SDS011;4969;52.304;4.968;2023-02-28T09:11:05;4.03;;;3.70;;
9860;SDS011;4969;52.304;4.968;2023-02-28T09:13:33;4.13;;;3.73;;
9860;SDS011;4969;52.304;4.968;2023-02-28T09:16:00;4.93;;;3.90;;
9860;SDS011;4969;52.304;4.968;2023-02-28T09:18:28;4.00;;;3.67;;
9860;SDS011;4969;52.304;4.968;2023-02-28T09:20:56;5.03;;;3.90;;
9860;SDS011;4969;52.304;4.968;2023-02-28T09:23:23;6.27;;;4.00;;
9860;SDS011;4969;52.304;4.968;2023-02-28T09:25:51;5.67;;;4.30;;
9860;SDS011;4969;52.304;4.968;2023-02-28T09:28:19;4.60;;;3.97;;
9860;SDS011;4969;52.304;4.968;2023-02-28T09:30:49;6.07;;;4.10;;
9860;SDS011;4969;52.304;4.968;2023-02-28T09:33:16;20.73;;;15.80;;
9860;SDS011;4969;52.304;4.968;2023-02-28T09:35:45;8.43;;;7.27;;
9860;SDS011;4969;52.304;4.968;2023-02-28T09:38:12;4.60;;;4.13;;
9860;SDS011;4969;52.304;4.968;2023-02-28T09:40:48;6.13;;;4.90;;
9860;SDS011;4969;52.304;4.968;2023-02-28T09:43:16;4.70;;;4.30;;
9860;SDS011;4969;52.304;4.968;2023-02-28T09:45:47;11.20;;;8.27;;
9860;SDS011;4969;52.304;4.968;2023-02-28T09:48:19;6.17;;;4.57;;
9860;SDS011;4969;52.304;4.968;2023-02-28T09:50:50;15.03;;;12.20;;
9860;SDS011;4969;52.304;4.968;2023-02-28T09:53:19;16.23;;;8.37;;
9860;SDS011;4969;52.304;4.968;2023-02-28T09:55:52;4.73;;;3.60;;
9860;SDS011;4969;52.304;4.968;2023-02-28T09:58:23;6.53;;;5.50;;
9860;SDS011;4969;52.304;4.968;2023-02-28T10:00:58;4.50;;;4.10;;
9860;SDS011;4969;52.304;4.968;2023-02-28T10:03:29;8.03;;;6.83;;
9860;SDS011;4969;52.304;4.968;2023-02-28T10:06:00;11.43;;;9.50;;
9860;SDS011;4969;52.304;4.968;2023-02-28T10:08:33;9.93;;;8.50;;
9860;SDS011;4969;52.304;4.968;2023-02-28T10:11:07;14.83;;;12.37;;
9860;SDS011;4969;52.304;4.968;2023-02-28T10:13:39;3.40;;;3.10;;
9860;SDS011;4969;52.304;4.968;2023-02-28T10:16:18;7.53;;;6.43;;
9860;SDS011;4969;52.304;4.968;2023-02-28T10:18:50;15.47;;;11.83;;
9860;SDS011;4969;52.304;4.968;2023-02-28T10:21:23;11.07;;;9.40;;
9860;SDS011;4969;52.304;4.968;2023-02-28T10:23:56;15.33;;;10.53;;
9860;SDS011;4969;52.304;4.968;2023-02-28T10:26:30;14.37;;;10.50;;
9860;SDS011;4969;52.304;4.968;2023-02-28T10:28:58;15.50;;;11.80;;
9860;SDS011;4969;52.304;4.968;2023-02-28T10:31:26;12.80;;;9.57;;
9860;SDS011;4969;52.304;4.968;2023-02-28T10:33:53;3.60;;;3.20;;
9860;SDS011;4969;52.304;4.968;2023-02-28T10:36:20;7.90;;;6.53;;
9860;SDS011;4969;52.304;4.968;2023-02-28T10:38:48;9.30;;;7.30;;
9860;SDS011;4969;52.304;4.968;2023-02-28T10:41:15;4.23;;;3.37;;
9860;SDS011;4969;52.304;4.968;2023-02-28T10:43:52;2.90;;;2.60;;
9860;SDS011;4969;52.304;4.968;2023-02-28T10:46:19;7.20;;;6.23;;
9860;SDS011;4969;52.304;4.968;2023-02-28T10:49:00;7.63;;;6.07;;
9860;SDS011;4969;52.304;4.968;2023-02-28T10:51:34;8.57;;;7.13;;
9860;SDS011;4969;52.304;4.968;2023-02-28T10:54:03;5.57;;;4.87;;
9860;SDS011;4969;52.304;4.968;2023-02-28T10:56:30;4.20;;;3.53;;
9860;SDS011;4969;52.304;4.968;2023-02-28T10:58:58;2.73;;;2.33;;
9860;SDS011;4969;52.304;4.968;2023-02-28T11:01:34;5.60;;;5.03;;
9860;SDS011;4969;52.304;4.968;2023-02-28T11:04:04;7.73;;;5.90;;
9860;SDS011;4969;52.304;4.968;2023-02-28T11:06:43;5.63;;;5.10;;
9860;SDS011;4969;52.304;4.968;2023-02-28T11:09:16;4.60;;;4.20;;
9860;SDS011;4969;52.304;4.968;2023-02-28T11:11:55;6.30;;;4.87;;
9860;SDS011;4969;52.304;4.968;2023-02-28T11:14:22;7.43;;;5.90;;
9860;SDS011;4969;52.304;4.968;2023-02-28T11:16:51;5.63;;;4.40;;
9860;SDS011;4969;52.304;4.968;2023-02-28T11:19:20;5.60;;;4.90;;
9860;SDS011;4969;52.304;4.968;2023-02-28T11:21:52;4.70;;;4.03;;
9860;SDS011;4969;52.304;4.968;2023-02-28T11:24:23;3.03;;;2.73;;
9860;SDS011;4969;52.304;4.968;2023-02-28T11:26:53;4.13;;;3.80;;
9860;SDS011;4969;52.304;4.968;2023-02-28T11:29:21;4.97;;;4.45;;
9860;SDS011;4969;52.304;4.968;2023-02-28T11:32:03;6.45;;;4.70;;
9860;SDS011;4969;52.304;4.968;2023-02-28T11:34:43;2.00;;;1.90;;
9860;SDS011;4969;52.304;4.968;2023-02-28T11:37:12;2.13;;;2.03;;
9860;SDS011;4969;52.304;4.968;2023-02-28T11:39:41;5.03;;;4.20;;
9860;SDS011;4969;52.304;4.968;2023-02-28T11:42:11;3.60;;;3.25;;
9860;SDS011;4969;52.304;4.968;2023-02-28T11:44:55;2.95;;;2.70;;
9860;SDS011;4969;52.304;4.968;2023-02-28T11:47:42;2.50;;;2.40;;
9860;SDS011;4969;52.304;4.968;2023-02-28T11:50:20;1.90;;;1.80;;
9860;SDS011;4969;52.304;4.968;2023-02-28T11:53:10;4.87;;;2.63;;
9860;SDS011;4969;52.304;4.968;2023-02-28T11:55:44;2.00;;;1.80;;
9860;SDS011;4969;52.304;4.968;2023-02-28T11:58:24;2.70;;;2.20;;
9860;SDS011;4969;52.304;4.968;2023-02-28T12:01:01;3.03;;;1.93;;
9860;SDS011;4969;52.304;4.968;2023-02-28T12:03:38;3.27;;;2.97;;
9860;SDS011;4969;52.304;4.968;2023-02-28T12:06:15;1.83;;;1.63;;
9860;SDS011;4969;52.304;4.968;2023-02-28T12:08:53;1.70;;;1.60;;
9860;SDS011;4969;52.304;4.968;2023-02-28T12:11:34;2.53;;;2.33;;
9860;SDS011;4969;52.304;4.968;2023-02-28T12:17:15;2.47;;;2.27;;
9860;SDS011;4969;52.304;4.968;2023-02-28T12:19:55;2.40;;;2.20;;
9860;SDS011;4969;52.304;4.968;2023-02-28T12:22:29;1.87;;;1.77;;
9860;SDS011;4969;52.304;4.968;2023-02-28T12:25:13;3.37;;;2.50;;
9860;SDS011;4969;52.304;4.968;2023-02-28T12:27:50;2.93;;;2.03;;
9860;SDS011;4969;52.304;4.968;2023-02-28T12:30:19;2.87;;;1.70;;
9860;SDS011;4969;52.304;4.968;2023-02-28T12:32:48;1.77;;;1.67;;
9860;SDS011;4969;52.304;4.968;2023-02-28T12:35:21;3.07;;;2.33;;
9860;SDS011;4969;52.304;4.968;2023-02-28T12:37:53;2.43;;;2.23;;
9860;SDS011;4969;52.304;4.968;2023-02-28T12:40:25;2.67;;;2.10;;
9860;SDS011;4969;52.304;4.968;2023-02-28T12:42:58;2.63;;;2.43;;
9860;SDS011;4969;52.304;4.968;2023-02-28T12:45:31;1.95;;;1.85;;
9860;SDS011;4969;52.304;4.968;2023-02-28T12:48:08;2.47;;;1.90;;
9860;SDS011;4969;52.304;4.968;2023-02-28T12:50:39;2.67;;;1.93;;
9860;SDS011;4969;52.304;4.968;2023-02-28T12:53:08;3.30;;;2.07;;
9860;SDS011;4969;52.304;4.968;2023-02-28T12:55:40;2.53;;;2.33;;
9860;SDS011;4969;52.304;4.968;2023-02-28T12:58:14;2.50;;;2.30;;
9860;SDS011;4969;52.304;4.968;2023-02-28T13:01:02;2.10;;;2.00;;
9860;SDS011;4969;52.304;4.968;2023-02-28T13:03:43;1.97;;;1.77;;
9860;SDS011;4969;52.304;4.968;2023-02-28T13:09:15;2.10;;;1.90;;
9860;SDS011;4969;52.304;4.968;2023-02-28T13:11:44;1.90;;;1.80;;
9860;SDS011;4969;52.304;4.968;2023-02-28T13:14:19;2.40;;;2.13;;
9860;SDS011;4969;52.304;4.968;2023-02-28T13:16:51;1.80;;;1.70;;
9860;SDS011;4969;52.304;4.968;2023-02-28T13:19:22;2.57;;;2.37;;
9860;SDS011;4969;52.304;4.968;2023-02-28T13:21:51;3.73;;;2.47;;
9860;SDS011;4969;52.304;4.968;2023-02-28T13:24:39;2.87;;;2.67;;
9860;SDS011;4969;52.304;4.968;2023-02-28T13:27:21;2.40;;;1.90;;
9860;SDS011;4969;52.304;4.968;2023-02-28T13:29:50;2.60;;;2.40;;
9860;SDS011;4969;52.304;4.968;2023-02-28T13:32:29;3.20;;;2.00;;
9860;SDS011;4969;52.304;4.968;2023-02-28T13:35:14;2.93;;;2.70;;
9860;SDS011;4969;52.304;4.968;2023-02-28T13:44:06;2.87;;;2.53;;
9860;SDS011;4969;52.304;4.968;2023-02-28T13:46:35;3.40;;;2.40;;
9860;SDS011;4969;52.304;4.968;2023-02-28T13:49:24;2.33;;;2.13;;
9860;SDS011;4969;52.304;4.968;2023-02-28T13:51:53;2.20;;;2.00;;
9860;SDS011;4969;52.304;4.968;2023-02-28T13:54:31;2.50;;;1.93;;
9860;SDS011;4969;52.304;4.968;2023-02-28T13:57:11;2.40;;;2.30;;
9860;SDS011;4969;52.304;4.968;2023-02-28T13:59:54;2.20;;;2.10;;
9860;SDS011;4969;52.304;4.968;2023-02-28T14:02:36;2.40;;;2.30;;
9860;SDS011;4969;52.304;4.968;2023-02-28T14:05:14;2.40;;;2.30;;
9860;SDS011;4969;52.304;4.968;2023-02-28T14:07:44;2.80;;;2.30;;
9860;SDS011;4969;52.304;4.968;2023-02-28T14:10:25;2.63;;;2.43;;
9860;SDS011;4969;52.304;4.968;2023-02-28T14:12:54;2.43;;;2.20;;
9860;SDS011;4969;52.304;4.968;2023-02-28T14:15:28;3.27;;;2.40;;
9860;SDS011;4969;52.304;4.968;2023-02-28T14:18:13;2.53;;;2.40;;
9860;SDS011;4969;52.304;4.968;2023-02-28T14:20:43;2.43;;;2.30;;
9860;SDS011;4969;52.304;4.968;2023-02-28T14:23:14;2.27;;;2.10;;
9860;SDS011;4969;52.304;4.968;2023-02-28T14:25:52;3.77;;;3.47;;
9860;SDS011;4969;52.304;4.968;2023-02-28T14:28:40;3.17;;;2.30;;
9860;SDS011;4969;52.304;4.968;2023-02-28T14:31:18;2.50;;;2.30;;
9860;SDS011;4969;52.304;4.968;2023-02-28T14:33:59;2.80;;;2.50;;
9860;SDS011;4969;52.304;4.968;2023-02-28T14:36:41;2.50;;;2.30;;
9860;SDS011;4969;52.304;4.968;2023-02-28T14:39:11;3.03;;;2.30;;
9860;SDS011;4969;52.304;4.968;2023-02-28T14:41:41;2.53;;;2.33;;
9860;SDS011;4969;52.304;4.968;2023-02-28T14:44:14;2.97;;;2.67;;
9860;SDS011;4969;52.304;4.968;2023-02-28T14:46:44;2.67;;;2.47;;
9860;SDS011;4969;52.304;4.968;2023-02-28T14:49:15;2.37;;;2.27;;
9860;SDS011;4969;52.304;4.968;2023-02-28T14:51:44;2.43;;;2.20;;
9860;SDS011;4969;52.304;4.968;2023-02-28T14:54:13;2.40;;;2.20;;
9860;SDS011;4969;52.304;4.968;2023-02-28T14:56:41;2.50;;;2.30;;
9860;SDS011;4969;52.304;4.968;2023-02-28T14:59:21;2.60;;;2.40;;
9860;SDS011;4969;52.304;4.968;2023-02-28T15:01:52;3.00;;;2.70;;
9860;SDS011;4969;52.304;4.968;2023-02-28T15:04:33;2.60;;;2.40;;
9860;SDS011;4969;52.304;4.968;2023-02-28T15:07:09;2.40;;;2.20;;
9860;SDS011;4969;52.304;4.968;2023-02-28T15:09:37;2.80;;;2.50;;
9860;SDS011;4969;52.304;4.968;2023-02-28T15:12:03;2.37;;;2.20;;
9860;SDS011;4969;52.304;4.968;2023-02-28T15:14:30;2.40;;;2.20;;
9860;SDS011;4969;52.304;4.968;2023-02-28T15:16:59;3.53;;;2.53;;
9860;SDS011;4969;52.304;4.968;2023-02-28T15:19:32;2.57;;;2.37;;
9860;SDS011;4969;52.304;4.968;2023-02-28T15:22:02;2.60;;;2.30;;
9860;SDS011;4969;52.304;4.968;2023-02-28T15:24:35;2.60;;;2.40;;
9860;SDS011;4969;52.304;4.968;2023-02-28T15:27:04;2.30;;;2.20;;
9860;SDS011;4969;52.304;4.968;2023-02-28T15:29:36;2.20;;;2.10;;
9860;SDS011;4969;52.304;4.968;2023-02-28T15:32:20;3.50;;;3.20;;
9860;SDS011;4969;52.304;4.968;2023-02-28T15:34:50;2.43;;;2.23;;
9860;SDS011;4969;52.304;4.968;2023-02-28T15:37:27;2.00;;;1.90;;
9860;SDS011;4969;52.304;4.968;2023-02-28T15:39:57;2.73;;;2.43;;
9860;SDS011;4969;52.304;4.968;2023-02-28T15:42:30;2.20;;;2.10;;
9860;SDS011;4969;52.304;4.968;2023-02-28T15:44:57;3.00;;;2.27;;
9860;SDS011;4969;52.304;4.968;2023-02-28T15:47:26;2.40;;;2.20;;
9860;SDS011;4969;52.304;4.968;2023-02-28T15:49:55;2.63;;;2.40;;
9860;SDS011;4969;52.304;4.968;2023-02-28T15:52:28;2.57;;;2.23;;
9860;SDS011;4969;52.304;4.968;2023-02-28T15:54:59;2.60;;;2.40;;
9860;SDS011;4969;52.304;4.968;2023-02-28T15:57:35;2.97;;;2.60;;
9860;SDS011;4969;52.304;4.968;2023-02-28T16:00:02;2.30;;;2.10;;
9860;SDS011;4969;52.304;4.968;2023-02-28T16:02:32;2.60;;;2.40;;
9860;SDS011;4969;52.304;4.968;2023-02-28T16:05:02;3.23;;;2.30;;